MUSC

Abel Santa Maria Airport

Airport
ICAO code
MUSC
IATA Code
SNU
Summary
ICAO Region
CARSAM
ICAO Territory
Location

Santa Clara, Villa Clara

Serving
Santa Clara
Elevation
338 ft
Coordinates
22° 29' 26" N , 79° 56' 40" W
KCC
Airport BS
Bird Strike
Metar
MUSC 161350Z 10007KT 060V150 9000 SCT020 27/20 Q1018

International airport serving Santa Clara, Cuba.

Climatology

Tropical Savanna climate (Köppen climate classification Aw)

Runways

Designator Length Width Surface Rops
8/26 3017 45 ASP Yes/Yes

Airport map

Aerial View

SKYbrary Partners:

Safety knowledge contributed by: